Time;durP1;ratioP1;P1;durP2;ratioP2;P2;SDS_P1;SDS_P2;PMS_P1;PMS_P2;Temp;Humidity;BMP_temperature;BMP_pressure;BME280_temperature;BME280_humidity;BME280_pressure;Samples;Min_cycle;Max_cycle;Signal;HPM_P1;HPM_P2
2022/08/05 00:00:12;;;;;;;5.40;4.15;;;;;;;21.13;51.59;95584.28;5050324;28;20342;-78
2022/08/05 00:02:38;;;;;;;5.32;4.32;;;;;;;21.10;51.48;95585.59;5083107;28;20052;-78
2022/08/05 00:05:04;;;;;;;8.15;4.43;;;;;;;21.09;51.64;95583.94;5084091;28;20024;-78
2022/08/05 00:07:29;;;;;;;4.90;4.22;;;;;;;21.08;51.77;95585.03;5082935;28;20034;-79
2022/08/05 00:09:55;;;;;;;7.45;4.43;;;;;;;21.01;51.74;95578.84;5085613;28;20050;-79
2022/08/05 00:12:20;;;;;;;7.95;4.28;;;;;;;20.96;51.86;95573.28;5083936;28;20024;-78
2022/08/05 00:14:45;;;;;;;6.07;4.72;;;;;;;20.97;51.82;95577.69;5067297;28;20085;-78
2022/08/05 00:17:11;;;;;;;4.95;4.45;;;;;;;20.91;51.56;95565.78;5084848;28;20053;-79
2022/08/05 00:19:36;;;;;;;8.07;4.30;;;;;;;20.92;51.74;95561.22;5067043;28;20035;-78
2022/08/05 00:22:02;;;;;;;6.00;5.18;;;;;;;20.94;51.44;95565.34;5085129;28;20020;-79
2022/08/05 00:24:28;;;;;;;5.60;4.15;;;;;;;20.88;51.61;95567.13;5066739;28;20031;-79
2022/08/05 00:26:53;;;;;;;7.03;4.53;;;;;;;20.83;51.74;95563.47;5067083;28;20485;-79
2022/08/05 00:29:22;;;;;;;6.45;4.68;;;;;;;20.80;52.03;95562.03;5084202;28;20016;-79
2022/08/05 00:31:47;;;;;;;6.38;4.55;;;;;;;20.81;52.21;95565.59;5085378;28;20035;-79
2022/08/05 00:34:13;;;;;;;6.65;4.50;;;;;;;20.70;52.25;95562.63;5082919;28;20024;-79
2022/08/05 00:36:40;;;;;;;6.65;4.18;;;;;;;20.70;51.88;95564.53;5067323;28;20020;-79
2022/08/05 00:39:06;;;;;;;6.78;4.00;;;;;;;20.68;51.90;95559.34;5084508;28;20478;-78
2022/08/05 00:41:32;;;;;;;6.07;4.68;;;;;;;20.62;52.25;95562.97;5083662;28;20021;-79
2022/08/05 00:43:58;;;;;;;6.60;5.30;;;;;;;20.56;52.35;95559.31;5084728;28;20452;-79
2022/08/05 00:46:24;;;;;;;6.30;4.55;;;;;;;20.52;52.17;95555.44;5066416;28;20412;-79
2022/08/05 00:48:50;;;;;;;5.00;4.38;;;;;;;20.50;52.60;95560.28;5084114;28;20051;-79
2022/08/05 00:51:15;;;;;;;8.68;4.80;;;;;;;20.51;52.29;95561.94;5066002;28;20028;-79
2022/08/05 00:53:41;;;;;;;7.65;4.72;;;;;;;20.49;53.46;95559.44;5067562;28;20077;-79
2022/08/05 00:56:06;;;;;;;5.75;4.80;;;;;;;20.50;52.73;95566.56;5084005;28;20028;-78
2022/08/05 00:58:32;;;;;;;10.23;4.72;;;;;;;20.46;52.82;95559.91;5066833;28;20028;-79
2022/08/05 01:00:57;;;;;;;6.30;4.68;;;;;;;20.45;53.21;95565.59;5066237;28;20177;-78
2022/08/05 01:03:24;;;;;;;6.50;5.10;;;;;;;20.43;52.40;95565.00;5083288;28;20184;-79
2022/08/05 01:05:50;;;;;;;6.10;4.55;;;;;;;20.33;52.59;95558.25;5050565;28;20641;-79
2022/08/05 01:08:16;;;;;;;5.88;4.75;;;;;;;20.33;52.70;95554.72;5065951;28;20024;-79
2022/08/05 01:10:51;;;;;;;5.90;4.35;;;;;;;20.33;52.78;95554.72;5085329;28;20032;-78
2022/08/05 01:13:43;;;;;;;5.03;4.25;;;;;;;20.31;53.13;95559.56;5066154;28;20047;-78
2022/08/05 01:16:12;;;;;;;6.35;4.70;;;;;;;20.28;53.23;95558.13;5069645;28;20032;-79
2022/08/05 01:18:41;;;;;;;4.80;4.22;;;;;;;20.25;53.69;95553.16;5083578;28;20024;-79
2022/08/05 01:21:11;;;;;;;5.70;4.28;;;;;;;20.24;52.83;95556.94;5066007;28;20082;-79
2022/08/05 01:24:09;;;;;;;6.22;4.35;;;;;;;20.24;52.60;95551.50;5084196;28;20024;-79
2022/08/05 01:26:53;;;;;;;7.88;4.82;;;;;;;20.18;52.41;95547.84;5072277;28;20063;-78
2022/08/05 01:29:53;;;;;;;5.47;4.75;;;;;;;20.09;52.85;95555.50;5087881;28;20031;-78
2022/08/05 01:32:20;;;;;;;5.32;4.35;;;;;;;20.10;52.83;95559.06;5033230;28;20043;-78
2022/08/05 01:35:05;;;;;;;6.38;4.50;;;;;;;20.02;53.42;95562.94;5069404;28;20024;-79
2022/08/05 01:37:44;;;;;;;5.15;4.47;;;;;;;20.03;53.00;95569.22;5088229;28;20028;-79
2022/08/05 01:40:11;;;;;;;6.30;5.32;;;;;;;19.93;53.06;95558.88;5070078;28;20524;-78
2022/08/05 01:42:37;;;;;;;7.35;5.18;;;;;;;19.88;53.69;95567.75;5052864;28;20028;-78
2022/08/05 01:45:03;;;;;;;4.93;4.40;;;;;;;19.80;53.60;95558.03;5070950;28;20760;-78
2022/08/05 01:47:29;;;;;;;5.20;4.70;;;;;;;19.83;54.34;95564.91;5069606;28;20028;-78
2022/08/05 01:49:55;;;;;;;6.65;4.65;;;;;;;19.78;54.95;95568.31;5088273;28;20109;-78
2022/08/05 01:52:20;;;;;;;6.30;4.85;;;;;;;19.74;54.04;95575.28;5086288;28;20047;-77
2022/08/05 01:54:48;;;;;;;8.50;4.93;;;;;;;19.71;54.22;95576.59;5087786;28;20028;-78
2022/08/05 01:57:22;;;;;;;7.20;5.18;;;;;;;19.62;54.69;95577.97;5069952;28;20024;-78
2022/08/05 01:59:48;;;;;;;6.75;4.90;;;;;;;19.60;54.70;95574.66;5070169;28;20028;-78
2022/08/05 02:02:13;;;;;;;7.07;4.43;;;;;;;19.56;54.64;95568.84;5069354;28;20491;-78
2022/08/05 02:04:39;;;;;;;6.90;5.00;;;;;;;19.57;55.09;95581.38;5069124;28;20418;-78
2022/08/05 02:07:04;;;;;;;5.30;4.70;;;;;;;19.55;54.59;95571.78;5087396;28;20032;-78
2022/08/05 02:09:30;;;;;;;5.95;5.15;;;;;;;19.52;54.38;95570.38;5086273;28;20024;-78
2022/08/05 02:12:06;;;;;;;5.25;4.30;;;;;;;19.48;54.66;95574.59;5070345;28;20511;-78
2022/08/05 02:14:33;;;;;;;5.07;4.55;;;;;;;19.45;54.78;95572.34;5087528;28;20020;-78
2022/08/05 02:17:09;;;;;;;8.35;5.13;;;;;;;19.41;55.20;95566.53;5069960;28;20565;-78
2022/08/05 02:19:36;;;;;;;9.15;5.32;;;;;;;19.37;55.36;95571.63;5070339;28;20525;-78
2022/08/05 02:22:14;;;;;;;8.70;4.82;;;;;;;19.39;55.17;95563.22;5051861;28;20060;-78
2022/08/05 02:24:40;;;;;;;8.43;5.10;;;;;;;19.35;55.17;95562.00;5070574;28;20030;-78
2022/08/05 02:27:07;;;;;;;5.95;4.75;;;;;;;19.35;55.09;95557.41;5068629;28;20028;-79
2022/08/05 02:29:33;;;;;;;5.85;4.90;;;;;;;19.33;55.03;95558.72;5069952;28;20051;-78
2022/08/05 02:31:58;;;;;;;6.22;4.75;;;;;;;19.30;55.29;95562.69;5068602;28;20521;-78
2022/08/05 02:34:25;;;;;;;8.98;5.35;;;;;;;19.29;55.07;95562.94;5086020;28;20027;-78
2022/08/05 02:36:52;;;;;;;7.43;5.25;;;;;;;19.30;55.79;95557.25;5069417;28;20081;-79
2022/08/05 02:39:18;;;;;;;7.43;5.32;;;;;;;19.26;55.28;95564.22;5085168;28;20589;-79
2022/08/05 02:41:45;;;;;;;8.45;5.88;;;;;;;19.22;55.29;95560.28;5069682;28;20111;-79
2022/08/05 02:44:10;;;;;;;6.10;5.00;;;;;;;19.21;55.23;95564.91;5068387;28;20028;-79
2022/08/05 02:46:37;;;;;;;9.05;5.30;;;;;;;19.17;55.05;95560.16;5069551;28;20460;-79
2022/08/05 02:49:03;;;;;;;8.50;4.70;;;;;;;19.16;55.07;95562.06;5085091;28;20024;-79
2022/08/05 02:51:29;;;;;;;7.60;5.07;;;;;;;19.17;55.01;95557.44;5069111;28;20414;-79
2022/08/05 02:53:54;;;;;;;7.00;5.55;;;;;;;19.17;55.31;95560.16;5085006;28;20135;-79
2022/08/05 02:56:20;;;;;;;8.45;5.18;;;;;;;19.18;55.30;95559.09;5068514;28;20032;-79
2022/08/05 02:58:45;;;;;;;6.60;5.47;;;;;;;19.17;55.82;95554.72;5069046;28;20020;-79
2022/08/05 03:01:16;;;;;;;8.57;5.72;;;;;;;19.16;55.60;95559.34;5067473;28;20415;-79
2022/08/05 03:03:41;;;;;;;10.05;5.28;;;;;;;19.15;55.30;95563.94;5069132;28;20565;-78
2022/08/05 03:06:10;;;;;;;9.20;5.43;;;;;;;19.13;54.99;95571.50;5084426;28;20131;-80
2022/08/05 03:08:37;;;;;;;9.32;5.45;;;;;;;19.05;54.80;95568.22;5069013;28;20047;-79
2022/08/05 03:11:02;;;;;;;8.52;5.75;;;;;;;18.99;55.75;95569.97;5084820;28;20021;-79
2022/08/05 03:13:28;;;;;;;6.57;5.90;;;;;;;18.97;55.33;95572.06;5085202;28;20100;-79
2022/08/05 03:15:53;;;;;;;9.20;6.05;;;;;;;18.94;55.67;95567.94;5085278;28;20571;-78
2022/08/05 03:18:19;;;;;;;8.70;5.97;;;;;;;18.96;55.69;95571.25;5086209;28;20503;-78
2022/08/05 03:20:44;;;;;;;7.32;5.50;;;;;;;18.94;55.44;95564.38;5086466;28;20035;-78
2022/08/05 03:23:10;;;;;;;7.72;5.63;;;;;;;18.90;56.16;95574.88;5067219;28;20028;-79
2022/08/05 03:25:35;;;;;;;8.57;5.13;;;;;;;18.88;55.86;95568.81;5068177;28;20035;-79
2022/08/05 03:28:02;;;;;;;6.82;5.53;;;;;;;18.81;55.87;95574.34;5050738;28;20430;-79
2022/08/05 03:30:28;;;;;;;9.48;5.60;;;;;;;18.78;55.81;95569.38;5086703;28;20366;-79
2022/08/05 03:32:54;;;;;;;6.30;5.43;;;;;;;18.71;55.85;95563.16;5084261;28;20036;-78
2022/08/05 03:35:20;;;;;;;7.57;5.60;;;;;;;18.58;56.58;95578.56;5084946;28;20031;-78
2022/08/05 03:37:45;;;;;;;8.27;5.55;;;;;;;18.60;56.47;95568.31;5068636;28;20047;-78
2022/08/05 03:40:11;;;;;;;7.90;5.90;;;;;;;18.65;56.14;95570.34;5084222;28;20031;-79
2022/08/05 03:42:38;;;;;;;8.05;5.78;;;;;;;18.67;56.17;95570.13;5068064;28;20032;-79
2022/08/05 03:45:05;;;;;;;7.38;5.55;;;;;;;18.71;55.78;95568.59;5085203;28;20588;-78
2022/08/05 03:47:31;;;;;;;8.05;5.55;;;;;;;18.73;55.90;95571.94;5084681;28;20024;-79
2022/08/05 03:49:56;;;;;;;7.72;5.50;;;;;;;18.76;55.79;95572.31;5083815;28;20568;-78
2022/08/05 03:52:25;;;;;;;7.28;5.47;;;;;;;18.75;55.88;95573.34;5086197;28;20153;-78
2022/08/05 03:54:58;;;;;;;6.68;5.30;;;;;;;18.77;55.88;95568.53;5067212;28;20065;-79
2022/08/05 03:57:25;;;;;;;6.88;5.60;;;;;;;18.78;55.41;95570.19;5067439;28;20217;-79
2022/08/05 03:59:54;;;;;;;9.30;6.32;;;;;;;18.76;55.42;95564.16;5067603;28;20105;-79
2022/08/05 04:02:20;;;;;;;7.53;5.28;;;;;;;18.71;55.87;95574.88;5066639;28;20493;-79
2022/08/05 04:04:46;;;;;;;7.20;5.53;;;;;;;18.75;55.49;95567.06;5067694;28;20040;-79
2022/08/05 04:07:11;;;;;;;7.40;5.68;;;;;;;18.67;55.47;95570.94;5066430;28;20035;-79
2022/08/05 04:09:37;;;;;;;8.93;5.38;;;;;;;18.71;55.38;95574.88;5067941;28;20767;-79
2022/08/05 04:12:02;;;;;;;8.32;5.18;;;;;;;18.72;55.42;95571.09;5083597;28;20099;-78
2022/08/05 04:14:28;;;;;;;7.45;5.47;;;;;;;18.70;55.31;95566.94;5085402;28;20089;-78
2022/08/05 04:16:53;;;;;;;6.40;5.20;;;;;;;18.76;55.10;95580.47;5050586;28;20482;-78
2022/08/05 04:19:19;;;;;;;8.00;5.45;;;;;;;18.78;54.93;95572.09;5085594;28;20026;-79
2022/08/05 04:21:44;;;;;;;10.60;5.78;;;;;;;18.80;55.04;95566.44;5084446;28;20383;-77
2022/08/05 04:24:10;;;;;;;6.70;4.90;;;;;;;18.83;54.91;95569.50;5066418;28;20058;-79
2022/08/05 04:26:35;;;;;;;6.90;5.90;;;;;;;18.87;54.91;95569.88;5067726;28;20425;-79
2022/08/05 04:29:01;;;;;;;8.15;5.50;;;;;;;18.89;54.93;95571.31;5083265;28;20082;-77
2022/08/05 04:31:26;;;;;;;11.85;5.78;;;;;;;18.97;54.94;95566.66;5084483;28;20032;-78
2022/08/05 04:33:52;;;;;;;6.53;5.50;;;;;;;19.02;54.68;95564.09;5083759;28;20091;-78
2022/08/05 04:36:17;;;;;;;6.78;5.78;;;;;;;19.12;54.50;95569.00;5083943;28;20032;-78
2022/08/05 04:38:43;;;;;;;13.27;5.75;;;;;;;19.21;54.51;95559.47;5084095;28;20024;-79
2022/08/05 04:41:08;;;;;;;12.63;5.32;;;;;;;19.33;54.49;95564.16;5084271;28;20039;-79
2022/08/05 04:43:34;;;;;;;9.05;5.57;;;;;;;19.49;54.47;95574.38;5067256;28;20027;-79
2022/08/05 04:45:59;;;;;;;10.13;5.60;;;;;;;19.59;54.11;95571.09;5082438;28;20468;-79
2022/08/05 04:48:25;;;;;;;8.30;5.28;;;;;;;19.74;54.43;95562.53;5084433;28;20610;-79
2022/08/05 04:50:50;;;;;;;9.63;5.75;;;;;;;19.91;54.60;95569.19;5084123;28;20039;-79
2022/08/05 04:53:16;;;;;;;9.25;5.93;;;;;;;19.99;54.46;95568.84;5084038;28;20481;-80
2022/08/05 04:55:42;;;;;;;11.32;5.93;;;;;;;20.13;53.62;95567.59;5083266;28;20088;-78
2022/08/05 04:58:08;;;;;;;6.80;5.57;;;;;;;20.25;53.45;95564.03;5085032;28;20025;-78
2022/08/05 05:00:34;;;;;;;8.65;6.05;;;;;;;20.38;53.09;95563.84;5070793;28;20036;-79
2022/08/05 05:03:00;;;;;;;9.93;6.55;;;;;;;20.49;52.89;95558.63;5069592;28;20538;-78
2022/08/05 05:05:26;;;;;;;7.97;5.85;;;;;;;20.61;53.19;95559.44;5074534;28;20028;-78
2022/08/05 05:07:51;;;;;;;7.25;5.70;;;;;;;20.74;53.25;95561.09;5089166;28;20032;-78
2022/08/05 05:10:17;;;;;;;7.40;6.20;;;;;;;20.86;53.04;95563.78;5055503;28;20487;-79
2022/08/05 05:12:42;;;;;;;8.15;6.18;;;;;;;20.99;53.34;95559.16;5089425;28;20024;-79
2022/08/05 05:15:08;;;;;;;7.05;5.57;;;;;;;21.10;53.47;95562.97;5070712;28;20371;-79
2022/08/05 05:17:38;;;;;;;6.95;6.20;;;;;;;21.20;52.67;95562.34;5087001;28;20063;-79
2022/08/05 05:20:05;;;;;;;6.93;6.20;;;;;;;21.33;52.05;95569.41;5069640;28;20099;-79
2022/08/05 05:22:30;;;;;;;6.32;5.50;;;;;;;21.45;50.23;95561.19;5086977;28;20024;-80
2022/08/05 05:24:56;;;;;;;6.13;4.68;;;;;;;21.56;50.60;95560.31;5052415;28;20051;-78
2022/08/05 05:27:21;;;;;;;8.15;5.43;;;;;;;21.65;50.68;95568.09;5087122;28;20036;-79
2022/08/05 05:29:47;;;;;;;12.85;5.70;;;;;;;21.74;50.31;95561.16;5087489;28;20098;-78
2022/08/05 05:32:12;;;;;;;7.28;5.68;;;;;;;21.81;49.93;95558.31;5088424;28;20063;-79
2022/08/05 05:34:37;;;;;;;6.53;5.80;;;;;;;21.82;49.19;95559.97;5086417;28;20031;-79
2022/08/05 05:37:03;;;;;;;7.47;5.68;;;;;;;21.96;49.69;95557.75;5086802;28;20028;-79
2022/08/05 05:39:28;;;;;;;8.02;5.30;;;;;;;22.12;49.16;95555.31;5088405;28;20024;-79
2022/08/05 05:41:54;;;;;;;9.95;5.75;;;;;;;22.27;48.96;95557.44;5069214;28;20020;-80
2022/08/05 05:44:19;;;;;;;7.68;5.65;;;;;;;22.23;48.20;95554.38;5069985;28;20402;-79
2022/08/05 05:46:45;;;;;;;6.25;5.38;;;;;;;22.05;48.67;95550.84;5085887;28;20539;-80
2022/08/05 05:49:10;;;;;;;9.45;5.40;;;;;;;22.16;48.32;95559.19;5086741;28;20024;-80
2022/08/05 05:51:36;;;;;;;7.78;5.32;;;;;;;22.30;47.75;95559.66;5086805;28;20035;-79
2022/08/05 05:54:01;;;;;;;6.13;5.28;;;;;;;22.30;47.69;95559.66;5086766;28;20552;-79
2022/08/05 05:56:27;;;;;;;15.13;4.80;;;;;;;22.53;47.93;95564.13;5085532;28;20031;-79
2022/08/05 05:58:53;;;;;;;10.35;5.18;;;;;;;22.74;47.02;95550.78;5068918;28;20020;-79
2022/08/05 06:01:18;;;;;;;6.00;5.10;;;;;;;22.88;47.14;95553.13;5087173;28;20048;-80
2022/08/05 06:03:43;;;;;;;8.57;5.40;;;;;;;22.96;46.35;95560.91;5085355;28;20028;-80
2022/08/05 06:06:09;;;;;;;8.57;5.03;;;;;;;23.08;46.41;95560.81;5086338;28;20074;-80
2022/08/05 06:08:34;;;;;;;5.97;5.07;;;;;;;23.06;46.37;95560.22;5068072;28;20101;-79
2022/08/05 06:11:00;;;;;;;8.65;4.75;;;;;;;23.22;46.43;95561.25;5085667;28;20426;-80
2022/08/05 06:13:25;;;;;;;9.07;5.15;;;;;;;23.28;46.21;95559.41;5068544;28;20743;-79
2022/08/05 06:15:51;;;;;;;8.13;5.07;;;;;;;23.46;45.97;95558.25;5068947;28;20032;-79
2022/08/05 06:18:16;;;;;;;9.85;4.88;;;;;;;23.64;45.69;95550.78;5069072;28;20028;-79
2022/08/05 06:20:42;;;;;;;8.77;4.80;;;;;;;23.77;45.33;95555.88;5086514;28;20512;-79
2022/08/05 06:23:07;;;;;;;12.05;5.38;;;;;;;23.80;44.91;95560.81;5087471;28;20506;-79
2022/08/05 06:25:33;;;;;;;8.75;5.28;;;;;;;23.69;45.20;95559.06;5067712;28;20024;-79
2022/08/05 06:27:58;;;;;;;9.45;4.97;;;;;;;23.68;44.90;95555.47;5086106;28;20105;-79
2022/08/05 06:30:25;;;;;;;7.80;5.18;;;;;;;23.64;45.09;95553.53;5050836;28;20035;-80
2022/08/05 06:32:51;;;;;;;9.55;6.28;;;;;;;23.74;44.93;95559.13;5069499;28;20551;-80
2022/08/05 06:35:16;;;;;;;11.20;5.25;;;;;;;23.92;45.13;95557.09;5068678;28;20032;-80
2022/08/05 06:37:42;;;;;;;13.65;5.70;;;;;;;23.80;44.70;95566.28;5068144;28;20039;-79
2022/08/05 06:40:08;;;;;;;9.50;5.60;;;;;;;24.09;44.69;95565.19;5086110;28;20024;-80
2022/08/05 06:42:33;;;;;;;8.55;4.72;;;;;;;24.11;44.39;95556.69;5084158;28;20169;-80
2022/08/05 06:44:59;;;;;;;31.73;6.25;;;;;;;24.16;44.32;95551.31;5087283;28;20028;-80
2022/08/05 06:47:24;;;;;;;6.25;5.15;;;;;;;24.12;45.31;95550.16;5067651;28;20051;-80
2022/08/05 06:49:50;;;;;;;8.02;4.72;;;;;;;24.18;45.22;95549.13;5085952;28;20028;-81
2022/08/05 06:52:15;;;;;;;7.00;4.53;;;;;;;24.20;45.12;95550.53;5067641;28;20498;-80
2022/08/05 06:54:40;;;;;;;7.78;4.60;;;;;;;24.34;44.55;95547.34;5085331;28;20093;-80
2022/08/05 06:57:06;;;;;;;9.30;4.88;;;;;;;24.48;44.48;95542.22;5085437;28;20016;-80
2022/08/05 06:59:31;;;;;;;9.95;5.00;;;;;;;24.49;43.69;95546.63;5084548;28;20032;-80
2022/08/05 07:01:57;;;;;;;11.40;5.20;;;;;;;24.36;43.96;95553.38;5086686;28;20093;-78
2022/08/05 07:04:22;;;;;;;9.45;5.55;;;;;;;24.42;44.22;95546.03;5067460;28;20024;-80
2022/08/05 07:06:48;;;;;;;9.32;5.88;;;;;;;24.56;44.57;95547.22;5084957;28;20052;-80
2022/08/05 07:09:13;;;;;;;9.93;5.53;;;;;;;24.74;44.52;95549.78;5085561;28;20024;-80
2022/08/05 07:11:38;;;;;;;8.80;5.22;;;;;;;24.89;43.49;95547.16;5086622;28;20024;-79
2022/08/05 07:16:48;;;;;;;8.65;5.22;;;;;;;24.47;43.43;95548.81;5070663;28;20048;-80
2022/08/05 07:19:20;;;;;;;10.98;5.63;;;;;;;24.38;43.27;95553.94;5086439;28;20024;-79
2022/08/05 07:21:46;;;;;;;9.50;5.35;;;;;;;24.41;43.17;95547.09;5082949;28;20028;-79
2022/08/05 07:24:12;;;;;;;7.25;5.10;;;;;;;24.64;43.11;95545.06;5068585;28;20028;-80
2022/08/05 07:26:37;;;;;;;6.75;4.50;;;;;;;24.60;43.22;95549.44;5066796;28;20027;-79
2022/08/05 07:29:03;;;;;;;9.80;5.18;;;;;;;24.96;43.99;95540.59;5085200;28;20027;-81
2022/08/05 07:31:28;;;;;;;9.10;4.93;;;;;;;25.23;43.49;95548.69;5083883;28;20383;-81
2022/08/05 07:33:54;;;;;;;9.60;4.72;;;;;;;25.49;42.05;95543.28;5084364;28;20024;-81
2022/08/05 07:36:19;;;;;;;11.57;4.82;;;;;;;25.42;41.11;95537.25;5068016;28;20395;-79
2022/08/05 07:38:44;;;;;;;10.80;4.90;;;;;;;25.42;40.94;95537.25;5084754;28;20024;-79
2022/08/05 07:41:15;;;;;;;10.10;5.30;;;;;;;25.17;42.03;95536.03;5067759;28;20028;-79
2022/08/05 07:43:42;;;;;;;10.90;5.20;;;;;;;24.95;42.39;95537.06;5066989;28;20028;-80
2022/08/05 07:46:08;;;;;;;7.90;5.20;;;;;;;24.70;42.62;95541.25;5068146;28;20027;-81
2022/08/05 07:48:33;;;;;;;7.85;5.43;;;;;;;24.77;42.37;95533.63;5066704;28;20479;-81
2022/08/05 07:50:59;;;;;;;8.18;5.20;;;;;;;25.11;41.71;95542.59;5085390;28;20467;-80
2022/08/05 07:53:24;;;;;;;9.95;6.00;;;;;;;25.22;41.62;95538.81;5084163;28;20125;-79
2022/08/05 07:55:50;;;;;;;8.25;4.85;;;;;;;25.25;41.05;95523.72;5066558;28;20055;-80
2022/08/05 07:58:15;;;;;;;11.35;5.10;;;;;;;25.31;40.90;95537.19;5067800;28;20028;-80
2022/08/05 08:00:41;;;;;;;8.80;4.80;;;;;;;25.35;40.77;95528.41;5083880;28;20023;-79
2022/08/05 08:03:13;;;;;;;8.15;5.20;;;;;;;25.22;40.94;95527.84;5084872;28;20580;-80
2022/08/05 08:05:42;;;;;;;6.00;4.80;;;;;;;25.55;40.09;95525.72;5067258;28;20019;-80
2022/08/05 08:08:11;;;;;;;12.05;5.32;;;;;;;25.60;40.06;95532.34;5067790;28;21010;-80
2022/08/05 08:10:36;;;;;;;8.85;4.05;;;;;;;25.92;40.39;95532.13;5066777;28;20459;-80
2022/08/05 08:13:02;;;;;;;7.97;3.88;;;;;;;26.21;39.06;95533.53;5066915;28;20026;-80
2022/08/05 08:15:27;;;;;;;6.57;4.03;;;;;;;26.48;37.90;95528.88;5067539;28;20032;-80
2022/08/05 08:17:53;;;;;;;5.68;4.13;;;;;;;26.62;37.66;95526.34;5082991;28;20027;-80
2022/08/05 08:20:21;;;;;;;10.25;4.32;;;;;;;26.70;37.34;95525.00;5067708;28;20513;-81
2022/08/05 08:22:54;;;;;;;8.10;4.60;;;;;;;26.64;37.76;95530.50;5083080;28;20027;-79
2022/08/05 08:25:19;;;;;;;9.73;4.40;;;;;;;26.50;37.04;95529.41;5067410;28;20029;-79
2022/08/05 08:27:45;;;;;;;8.18;4.53;;;;;;;26.67;37.36;95526.34;5083417;28;20039;-79
2022/08/05 08:30:11;;;;;;;7.15;3.30;;;;;;;26.35;37.07;95528.34;5083757;28;20414;-81
2022/08/05 08:32:36;;;;;;;6.47;3.85;;;;;;;25.89;38.51;95526.38;5050967;28;20039;-79
2022/08/05 08:35:02;;;;;;;7.18;4.47;;;;;;;25.59;38.91;95519.69;5087102;28;20020;-80
2022/08/05 08:37:27;;;;;;;7.57;4.47;;;;;;;25.71;39.23;95517.56;5088339;28;20027;-79
2022/08/05 08:39:53;;;;;;;6.93;4.00;;;;;;;25.85;38.61;95517.03;5092605;28;20050;-80
2022/08/05 08:42:18;;;;;;;5.95;3.92;;;;;;;26.23;37.20;95514.03;5071353;28;20020;-80
2022/08/05 08:44:44;;;;;;;9.18;4.70;;;;;;;26.17;37.03;95513.19;5070379;28;20085;-80
2022/08/05 08:47:09;;;;;;;6.32;3.97;;;;;;;26.19;38.07;95511.00;5054253;28;20043;-80
2022/08/05 08:49:35;;;;;;;6.22;3.97;;;;;;;26.47;38.63;95508.78;5074846;28;20032;-80
2022/08/05 08:52:06;;;;;;;8.55;4.20;;;;;;;26.81;38.36;95512.03;5090993;28;20059;-79
2022/08/05 08:54:32;;;;;;;6.57;3.80;;;;;;;27.14;35.90;95504.22;5074254;28;20028;-80
2022/08/05 08:56:58;;;;;;;6.93;3.92;;;;;;;27.08;36.22;95502.59;5093738;28;20459;-80
2022/08/05 08:59:23;;;;;;;13.10;4.30;;;;;;;26.98;37.79;95497.94;5093099;28;20028;-78
2022/08/05 09:01:49;;;;;;;7.40;4.05;;;;;;;26.95;37.76;95498.50;5090753;28;20507;-79
2022/08/05 09:04:14;;;;;;;6.47;3.85;;;;;;;27.25;37.21;95496.75;5073046;28;20489;-80
2022/08/05 09:06:39;;;;;;;9.85;3.80;;;;;;;27.40;35.72;95493.09;5088573;28;20388;-80
2022/08/05 09:09:05;;;;;;;4.47;3.90;;;;;;;27.42;35.48;95490.88;5088776;28;20510;-79
2022/08/05 09:11:35;;;;;;;5.65;3.40;;;;;;;27.60;36.01;95483.88;5088640;28;20430;-80
2022/08/05 09:14:00;;;;;;;5.65;3.30;;;;;;;28.01;35.34;95481.97;5086740;28;20116;-81
2022/08/05 09:16:26;;;;;;;5.85;3.80;;;;;;;28.16;35.08;95472.75;5087356;28;20024;-80
2022/08/05 09:18:51;;;;;;;5.88;3.28;;;;;;;28.35;33.90;95472.88;5086220;28;20032;-80
2022/08/05 09:21:18;;;;;;;6.40;3.22;;;;;;;28.32;32.92;95473.47;5087378;28;20028;-80
2022/08/05 09:23:44;;;;;;;4.03;2.97;;;;;;;28.23;32.00;95469.63;5086400;28;20474;-81
2022/08/05 09:26:11;;;;;;;9.43;3.75;;;;;;;28.05;32.66;95465.69;5070702;28;20488;-79
2022/08/05 09:28:38;;;;;;;3.97;2.97;;;;;;;27.99;33.03;95460.19;5086874;28;20028;-80
2022/08/05 09:31:10;;;;;;;4.80;3.33;;;;;;;28.21;34.93;95458.09;5069745;28;20056;-80
2022/08/05 09:33:49;;;;;;;4.60;3.30;;;;;;;28.43;33.52;95451.28;5088408;28;20498;-79
2022/08/05 09:36:16;;;;;;;3.78;2.92;;;;;;;28.12;33.67;95452.38;5087011;28;20028;-80
2022/08/05 09:39:16;;;;;;;5.13;3.00;;;;;;;27.88;33.33;95455.88;5087457;28;20028;-80
2022/08/05 09:42:02;;;;;;;3.88;3.05;;;;;;;27.96;32.11;95451.69;5032541;28;20482;-80
2022/08/05 09:44:45;;;;;;;5.15;2.63;;;;;;;28.12;30.73;95446.84;5084803;28;20039;-80
2022/08/05 09:47:20;;;;;;;2.95;2.50;;;;;;;28.24;31.88;95444.56;5088265;28;20585;-79
2022/08/05 09:49:53;;;;;;;3.30;2.67;;;;;;;28.49;32.27;95433.56;5086076;28;20069;-80
2022/08/05 09:52:22;;;;;;;4.80;3.08;;;;;;;28.60;33.23;95437.03;5087799;28;20124;-80
2022/08/05 09:55:08;;;;;;;5.30;2.90;;;;;;;28.91;31.26;95439.41;5069968;28;20031;-80
2022/08/05 09:57:33;;;;;;;2.90;2.60;;;;;;;28.95;31.04;95443.25;5068760;28;20031;-80
2022/08/05 10:00:17;;;;;;;13.38;2.72;;;;;;;28.98;31.07;95439.09;5088770;28;20103;-81
2022/08/05 10:02:48;;;;;;;3.83;2.72;;;;;;;29.06;30.97;95434.84;5085172;28;20468;-80
2022/08/05 10:05:16;;;;;;;5.68;2.67;;;;;;;29.05;30.09;95428.50;5086858;28;20054;-80
2022/08/05 10:07:52;;;;;;;5.43;2.80;;;;;;;28.96;31.42;95435.81;5086466;28;20071;-82
2022/08/05 10:10:22;;;;;;;4.82;2.90;;;;;;;28.87;31.26;95424.59;5087249;28;20033;-80
2022/08/05 10:12:50;;;;;;;6.47;3.15;;;;;;;28.85;31.10;95416.59;5067099;28;20883;-81
2022/08/05 10:15:28;;;;;;;5.85;3.30;;;;;;;29.12;31.83;95417.94;5052016;28;20055;-78
2022/08/05 10:18:13;;;;;;;4.22;2.75;;;;;;;29.40;31.02;95420.03;5085362;28;20028;-79
2022/08/05 10:20:43;;;;;;;3.92;3.15;;;;;;;29.36;29.87;95418.97;5084204;28;20031;-78
2022/08/05 10:23:10;;;;;;;6.28;3.47;;;;;;;29.29;30.79;95426.81;5083616;28;20028;-78
2022/08/05 10:25:36;;;;;;;5.93;3.35;;;;;;;29.31;30.52;95416.31;5068680;28;20035;-79
2022/08/05 10:28:01;;;;;;;5.00;3.30;;;;;;;29.29;29.38;95413.00;5067582;28;20402;-78
2022/08/05 10:30:27;;;;;;;5.25;3.20;;;;;;;29.21;29.55;95409.78;5071758;28;20025;-79
2022/08/05 10:32:53;;;;;;;6.30;3.25;;;;;;;28.86;31.03;95403.59;5067984;28;20494;-79
2022/08/05 10:35:19;;;;;;;4.13;3.00;;;;;;;28.95;30.94;95407.38;5079970;28;20099;-79
2022/08/05 10:37:44;;;;;;;8.70;3.70;;;;;;;29.16;31.32;95407.13;5070702;28;20468;-80
2022/08/05 10:40:20;;;;;;;3.72;3.38;;;;;;;29.34;31.52;95401.91;5065487;28;20477;-78
2022/08/05 10:42:47;;;;;;;3.83;3.28;;;;;;;29.41;30.87;95402.31;5048579;28;20499;-81
2022/08/05 10:45:12;;;;;;;8.02;3.53;;;;;;;29.45;30.13;95400.63;5048056;28;20027;-80
2022/08/05 10:47:43;;;;;;;5.97;3.22;;;;;;;29.02;30.34;95400.69;5048834;28;20028;-82
2022/08/05 10:50:12;;;;;;;3.95;3.28;;;;;;;29.17;33.18;95400.47;5072321;28;20028;-81
2022/08/05 10:52:43;;;;;;;6.80;3.53;;;;;;;29.42;29.70;95392.91;5061208;28;20520;-81
2022/08/05 10:55:10;;;;;;;4.70;3.42;;;;;;;29.53;29.60;95388.06;5078453;28;20441;-79
2022/08/05 10:57:36;;;;;;;6.38;3.58;;;;;;;29.66;30.39;95392.03;5064840;28;20491;-79
2022/08/05 11:00:17;;;;;;;4.63;3.30;;;;;;;29.70;29.91;95387.53;5073678;28;20662;-80
2022/08/05 11:03:04;;;;;;;5.15;3.53;;;;;;;29.66;28.97;95386.50;5082884;28;20052;-80
2022/08/05 11:05:30;;;;;;;5.18;3.30;;;;;;;29.63;29.79;95387.13;5079969;28;20044;-81
2022/08/05 11:07:56;;;;;;;4.57;3.30;;;;;;;29.67;30.81;95387.31;5067545;28;20039;-80
2022/08/05 11:10:22;;;;;;;5.55;3.50;;;;;;;29.72;31.31;95384.47;5084050;28;20028;-80
2022/08/05 11:12:48;;;;;;;4.22;3.20;;;;;;;29.76;31.13;95384.69;5063160;28;20039;-80
2022/08/05 11:15:29;;;;;;;4.50;3.38;;;;;;;29.94;29.93;95381.06;5079958;28;20024;-79
2022/08/05 11:18:32;;;;;;;4.00;3.28;;;;;;;30.07;29.73;95375.84;5084578;28;20024;-79
2022/08/05 11:20:57;;;;;;;5.05;3.28;;;;;;;30.12;29.88;95375.75;5076650;28;20109;-80
2022/08/05 11:23:29;;;;;;;5.68;3.25;;;;;;;30.21;29.33;95378.69;5072408;28;20032;-79
2022/08/05 11:26:07;;;;;;;7.45;3.78;;;;;;;30.13;29.24;95377.44;5083957;28;20043;-79
2022/08/05 11:28:33;;;;;;;4.57;3.00;;;;;;;30.31;29.36;95383.22;5079257;28;20032;-80
2022/08/05 11:31:01;;;;;;;5.93;3.75;;;;;;;30.33;28.19;95369.88;5083059;28;20027;-80
2022/08/05 11:33:44;;;;;;;4.28;3.22;;;;;;;30.52;27.79;95369.78;5070860;28;20442;-80
2022/08/05 11:36:12;;;;;;;4.13;3.42;;;;;;;30.60;29.68;95368.22;5076581;28;20062;-81